首页
METAR-TAF:

METAR-TAF

机场 :

萨尔瓦多奥斯卡·阿努尔福·罗梅罗-伊-加尔达梅斯主教国际机场

萨尔瓦多, 萨尔瓦多

纬度: 13-26N, 经度: 089-03W, 海拔: 25米

当前天气观测

该预报发布于36分钟前的06:50 UTC
风速3节,风向东转东北
温度 21°C
湿度 83%
气压 1011 hPa
能见度10公里或以上
1500米以下无云,无积雨云

METAR: MSLP 240650Z 06003KT CAVOK 21/18 Q1010 A2984 NOSIG

时间: 01:26 (07:26 UTC)

预报

该预报发布于4小时和1分钟前的03:25 UTC
预报有效从24日的 06点(UTC)到 25日的 06点(UTC)
风速6节,风向北转东北
能见度10公里或以上
1500米以下无云,无积雨云
从 24日的 1800点(UTC)
风速8节,风向南转西南
能见度10公里或以上
少量云层高于7500英尺
从 2500点(UTC)
风速6节,风向
能见度10公里或以上
1500米以下无云,无积雨云

TAF: MSLP 240325Z 2406/2506 03006KT CAVOK TX34/2418Z TN21/2410Z FM241800 20008KT 9999 FEW075 FM25000 01006KT CAVOK

超过4000个机场的气象观测和天气预报(METAR&TAF报告)。

可查询的气象台以黄色和红色小点在地图上表示。

将鼠标移到小点上方,可查看气象台名称。

然后点击查看天气观测和预报。

如需切换地图:点击带黑十字的绿色按钮放大地图;点击带横线的绿色按钮缩小地图;或者点击绿色箭头查看邻近地区的地图。


METAR-TAF: